createdAt,value
2019-03-12T00:00:58.494Z,5.37
2019-03-12T00:03:28.164Z,5.90
2019-03-12T00:05:57.804Z,5.53
2019-03-12T00:08:27.408Z,5.20
2019-03-12T00:10:57.041Z,5.23
2019-03-12T00:13:26.698Z,5.97
2019-03-12T00:15:56.863Z,5.60
2019-03-12T00:18:28.405Z,4.47
2019-03-12T00:20:57.771Z,4.70
2019-03-12T00:23:27.381Z,4.40
2019-03-12T00:25:56.978Z,4.93
2019-03-12T00:28:26.590Z,4.63
2019-03-12T00:30:56.171Z,4.50
2019-03-12T00:33:25.797Z,4.77
2019-03-12T00:35:55.545Z,4.40
2019-03-12T00:38:25.125Z,4.33
2019-03-12T00:40:54.748Z,4.50
2019-03-12T00:43:24.347Z,5.00
2019-03-12T00:45:53.937Z,4.40
2019-03-12T00:48:23.596Z,4.30
2019-03-12T00:50:53.200Z,4.20
2019-03-12T00:53:22.787Z,4.63
2019-03-12T00:55:52.443Z,4.13
2019-03-12T00:58:22.113Z,4.90
2019-03-12T01:00:51.909Z,4.30
2019-03-12T01:03:21.535Z,4.30
2019-03-12T01:05:51.083Z,4.33
2019-03-12T01:08:20.711Z,4.80
2019-03-12T01:10:50.263Z,4.77
2019-03-12T01:13:20.181Z,4.77
2019-03-12T01:15:50.010Z,4.40
2019-03-12T01:18:19.573Z,4.53
2019-03-12T01:20:49.259Z,4.70
2019-03-12T01:23:18.869Z,4.43
2019-03-12T01:25:48.480Z,4.47
2019-03-12T01:28:18.111Z,4.30
2019-03-12T01:30:47.851Z,4.70
2019-03-12T01:33:17.491Z,4.37
2019-03-12T01:35:47.074Z,4.27
2019-03-12T01:38:16.693Z,4.23
2019-03-12T01:40:46.699Z,4.23
2019-03-12T01:43:16.351Z,3.83
2019-03-12T01:45:45.969Z,3.60
2019-03-12T01:48:15.655Z,3.73
2019-03-12T01:50:45.325Z,3.30
2019-03-12T01:53:14.940Z,3.47
2019-03-12T01:55:44.667Z,3.40
2019-03-12T01:58:14.773Z,3.10
2019-03-12T02:00:44.499Z,2.73
2019-03-12T02:03:14.134Z,2.97
2019-03-12T02:05:43.801Z,2.40
2019-03-12T02:08:13.432Z,2.40
2019-03-12T02:10:43.020Z,2.77
2019-03-12T02:13:12.737Z,2.50
2019-03-12T02:15:42.324Z,2.40
2019-03-12T02:18:11.882Z,2.53
2019-03-12T02:20:41.572Z,2.37
2019-03-12T02:23:11.252Z,2.43
2019-03-12T02:25:40.861Z,2.70
2019-03-12T02:28:10.467Z,2.67
2019-03-12T02:30:40.119Z,2.90
2019-03-12T02:33:09.964Z,2.47
2019-03-12T02:35:39.558Z,2.57
2019-03-12T02:38:09.213Z,2.37
2019-03-12T02:40:38.799Z,2.60
2019-03-12T02:43:08.653Z,2.20
2019-03-12T02:45:38.340Z,2.30
2019-03-12T02:48:07.932Z,2.60
2019-03-12T02:50:37.507Z,2.50
2019-03-12T02:53:07.111Z,2.47
2019-03-12T02:55:36.733Z,2.40
2019-03-12T02:58:06.438Z,2.20
2019-03-12T03:00:36.048Z,2.37
2019-03-12T03:03:05.702Z,2.20
2019-03-12T03:05:40.676Z,2.10
2019-03-12T03:08:10.651Z,2.00
2019-03-12T03:10:40.308Z,2.13
2019-03-12T03:13:10.026Z,1.93
2019-03-12T03:15:44.552Z,1.73
2019-03-12T03:18:14.144Z,2.13
2019-03-12T03:20:43.762Z,1.70
2019-03-12T03:23:13.364Z,1.70
2019-03-12T03:25:43.071Z,1.60
2019-03-12T03:28:12.721Z,1.60
2019-03-12T03:30:42.503Z,1.20
2019-03-12T03:33:12.032Z,1.27
2019-03-12T03:35:41.705Z,1.50
2019-03-12T03:38:11.332Z,1.30
2019-03-12T03:40:40.943Z,1.10
2019-03-12T03:43:10.588Z,1.40
2019-03-12T03:45:40.155Z,1.30
2019-03-12T03:48:09.837Z,1.20
2019-03-12T03:50:39.397Z,1.20
2019-03-12T03:53:09.045Z,1.13
2019-03-12T03:55:38.632Z,0.90
2019-03-12T03:58:08.233Z,0.90
2019-03-12T04:00:37.932Z,1.00
2019-03-12T04:03:07.573Z,1.00
2019-03-12T04:05:37.159Z,0.97
2019-03-12T04:08:06.853Z,1.00
2019-03-12T04:10:36.437Z,1.00
2019-03-12T04:13:06.084Z,1.20
2019-03-12T04:15:35.755Z,0.87
2019-03-12T04:18:05.374Z,0.83
2019-03-12T04:20:34.990Z,1.10
2019-03-12T04:23:04.592Z,0.80
2019-03-12T04:25:34.273Z,0.80
2019-03-12T04:28:03.876Z,0.80
2019-03-12T04:30:33.479Z,0.80
2019-03-12T04:33:03.181Z,2.27
2019-03-12T04:35:32.793Z,0.80
2019-03-12T04:38:02.378Z,0.73
2019-03-12T04:40:31.987Z,0.60
2019-03-12T04:43:01.576Z,0.70
2019-03-12T04:45:31.298Z,0.80
2019-03-12T04:48:00.895Z,0.70
2019-03-12T04:50:30.467Z,0.70
2019-03-12T04:53:00.066Z,0.70
2019-03-12T04:55:29.712Z,0.60
2019-03-12T04:57:59.443Z,0.60
2019-03-12T05:00:28.992Z,0.60
2019-03-12T05:02:58.720Z,1.87
2019-03-12T05:05:28.353Z,0.67
2019-03-12T05:07:57.968Z,0.60
2019-03-12T05:10:27.603Z,0.60
2019-03-12T05:12:57.215Z,0.50
2019-03-12T05:15:26.817Z,0.63
2019-03-12T05:17:56.403Z,0.60
2019-03-12T05:20:25.972Z,0.40
2019-03-12T05:22:55.628Z,1.00
2019-03-12T05:25:25.245Z,0.70
2019-03-12T05:27:54.850Z,1.30
2019-03-12T05:30:24.544Z,0.50
2019-03-12T05:32:54.179Z,0.70
2019-03-12T05:35:23.804Z,0.60
2019-03-12T05:37:53.419Z,0.70
2019-03-12T05:40:22.993Z,0.70
2019-03-12T05:42:52.586Z,0.70
2019-03-12T05:45:22.300Z,0.60
2019-03-12T05:47:51.984Z,0.60
2019-03-12T05:50:21.640Z,0.60
2019-03-12T05:52:51.290Z,0.70
2019-03-12T05:55:20.980Z,0.80
2019-03-12T05:57:50.555Z,0.73
2019-03-12T06:00:21.356Z,0.57
2019-03-12T06:02:51.927Z,0.70
2019-03-12T06:05:23.395Z,0.50
2019-03-12T06:07:55.520Z,0.60
2019-03-12T06:10:24.453Z,0.70
2019-03-12T06:12:54.116Z,0.80
2019-03-12T06:15:23.709Z,1.00
2019-03-12T06:17:53.276Z,0.87
2019-03-12T06:20:22.927Z,0.70
2019-03-12T06:22:52.500Z,0.60
2019-03-12T06:25:22.139Z,1.10
2019-03-12T06:27:51.743Z,1.10
2019-03-12T06:30:21.470Z,0.70
2019-03-12T06:32:57.812Z,1.03
2019-03-12T06:35:40.794Z,0.90
2019-03-12T06:38:26.373Z,0.80
2019-03-12T06:41:00.871Z,1.00
2019-03-12T06:44:01.573Z,1.10
2019-03-12T06:46:59.050Z,1.00
2019-03-12T06:49:37.998Z,0.90
2019-03-12T06:52:44.817Z,0.77
2019-03-12T06:55:51.310Z,0.70
2019-03-12T06:58:36.177Z,1.00
2019-03-12T07:01:25.242Z,0.60
2019-03-12T07:04:09.529Z,0.80
2019-03-12T07:06:49.946Z,1.00
2019-03-12T07:09:41.240Z,1.10
2019-03-12T07:12:16.419Z,0.97
2019-03-12T07:15:14.024Z,1.43
2019-03-12T07:18:17.681Z,1.30
2019-03-12T07:21:10.590Z,0.90
2019-03-12T07:23:57.864Z,0.90
2019-03-12T07:26:49.791Z,0.90
2019-03-12T07:29:35.620Z,0.90
2019-03-12T07:32:30.278Z,0.80
2019-03-12T07:35:18.776Z,1.20
2019-03-12T07:37:58.505Z,1.10
2019-03-12T07:40:46.115Z,0.90
2019-03-12T07:43:40.542Z,1.00
2019-03-12T07:46:25.595Z,1.10
2019-03-12T07:49:14.100Z,1.47
2019-03-12T07:51:51.089Z,1.00
2019-03-12T07:54:32.157Z,0.90
2019-03-12T07:57:26.825Z,0.60
2019-03-12T08:00:21.572Z,0.80
2019-03-12T08:03:13.052Z,1.10
2019-03-12T08:05:55.684Z,1.23
2019-03-12T08:08:40.096Z,1.10
2019-03-12T08:11:28.599Z,0.80
2019-03-12T08:14:15.966Z,0.80
2019-03-12T08:17:10.304Z,1.10
2019-03-12T08:20:11.037Z,1.00
2019-03-12T08:22:45.719Z,0.90
2019-03-12T08:25:46.667Z,0.90
2019-03-12T08:28:39.329Z,0.90
2019-03-12T08:31:34.076Z,1.00
2019-03-12T08:34:17.805Z,1.10
2019-03-12T08:37:03.133Z,0.80
2019-03-12T08:39:39.762Z,0.97
2019-03-12T08:42:37.534Z,0.93
2019-03-12T08:45:26.468Z,0.80
2019-03-12T08:48:08.398Z,1.00
2019-03-12T08:50:56.926Z,0.80
2019-03-12T08:53:48.176Z,1.00
2019-03-12T08:56:43.557Z,0.83
2019-03-12T08:59:38.153Z,1.10
2019-03-12T09:02:33.109Z,1.00
2019-03-12T09:05:20.490Z,0.90
2019-03-12T09:08:09.003Z,1.00
2019-03-12T09:11:03.723Z,0.80
2019-03-12T09:14:05.391Z,0.87
2019-03-12T09:16:56.825Z,0.97
2019-03-12T09:19:45.341Z,0.80
2019-03-12T09:22:27.363Z,0.90
2019-03-12T09:25:14.385Z,1.20
2019-03-12T09:28:30.452Z,1.87
2019-03-12T09:31:25.047Z,1.20
2019-03-12T09:34:16.568Z,1.50
2019-03-12T09:37:05.060Z,1.10
2019-03-12T09:39:52.219Z,1.00
2019-03-12T09:42:50.062Z,1.07
2019-03-12T09:45:32.107Z,1.10
2019-03-12T09:48:08.836Z,1.37
2019-03-12T09:50:49.589Z,1.03
2019-03-12T09:53:41.309Z,1.70
2019-03-12T09:56:21.308Z,1.50
2019-03-12T09:59:18.966Z,1.20
2019-03-12T10:02:01.580Z,1.17
2019-03-12T10:04:55.929Z,1.30
2019-03-12T10:07:35.897Z,1.10
2019-03-12T10:10:17.936Z,1.07
2019-03-12T10:13:14.641Z,1.20
2019-03-12T10:15:51.975Z,1.50
2019-03-12T10:18:35.838Z,1.20
2019-03-12T10:21:24.378Z,1.10
2019-03-12T10:24:15.690Z,1.30
2019-03-12T10:26:50.014Z,1.33
2019-03-12T10:29:41.222Z,0.80
2019-03-12T10:32:19.064Z,1.03
2019-03-12T10:35:13.216Z,0.90
2019-03-12T10:37:55.568Z,1.00
2019-03-12T10:40:51.909Z,0.90
2019-03-12T10:43:26.845Z,0.93
2019-03-12T10:46:13.975Z,0.73
2019-03-12T10:48:43.966Z,0.97
2019-03-12T10:51:13.583Z,0.90
2019-03-12T10:53:43.265Z,0.90
2019-03-12T10:56:12.893Z,0.93
2019-03-12T10:58:42.505Z,1.10
2019-03-12T11:01:12.382Z,1.10
2019-03-12T11:03:42.051Z,1.00
2019-03-12T11:06:11.747Z,0.80
2019-03-12T11:08:41.386Z,0.93
2019-03-12T11:11:11.018Z,0.90
2019-03-12T11:13:40.799Z,0.80
2019-03-12T11:16:10.434Z,0.70
2019-03-12T11:18:40.063Z,1.20
2019-03-12T11:21:09.798Z,1.00
2019-03-12T11:23:39.461Z,1.10
2019-03-12T11:26:09.136Z,1.40
2019-03-12T11:28:38.749Z,1.30
2019-03-12T11:31:08.418Z,1.20
2019-03-12T11:33:38.036Z,1.20
2019-03-12T11:36:07.766Z,1.10
2019-03-12T11:38:37.544Z,1.23
2019-03-12T11:41:07.197Z,1.10
2019-03-12T11:43:36.823Z,0.87
2019-03-12T11:46:06.772Z,0.70
2019-03-12T11:48:36.482Z,0.90
2019-03-12T11:51:06.423Z,1.23
2019-03-12T11:53:36.300Z,0.90
2019-03-12T11:56:05.918Z,1.10
2019-03-12T11:58:35.608Z,1.20
2019-03-12T12:01:07.692Z,1.10
2019-03-12T12:03:37.338Z,1.20
2019-03-12T12:06:07.056Z,1.40
2019-03-12T12:08:36.721Z,1.10
2019-03-12T12:11:06.463Z,1.40
2019-03-12T12:13:36.352Z,1.33
2019-03-12T12:16:06.213Z,1.50
2019-03-12T12:18:35.824Z,1.60
2019-03-12T12:21:05.499Z,1.80
2019-03-12T12:23:35.146Z,1.30
2019-03-12T12:26:04.819Z,1.50
2019-03-12T12:28:34.468Z,2.00
2019-03-12T12:31:04.111Z,1.90
2019-03-12T12:33:33.826Z,1.57
2019-03-12T12:36:03.651Z,1.50
2019-03-12T12:38:34.085Z,1.67
2019-03-12T12:41:03.807Z,1.90
2019-03-12T12:43:33.536Z,1.70
2019-03-12T12:46:03.189Z,1.87
2019-03-12T12:48:32.807Z,1.83
2019-03-12T12:51:03.809Z,1.90
2019-03-12T12:53:33.721Z,1.53
2019-03-12T12:56:03.345Z,1.37
2019-03-12T12:58:32.969Z,1.40
2019-03-12T13:01:02.625Z,1.90
2019-03-12T13:03:32.274Z,2.00
2019-03-12T13:06:01.951Z,2.10
2019-03-12T13:08:31.578Z,2.10
2019-03-12T13:11:01.212Z,2.33
2019-03-12T13:13:30.970Z,3.07
2019-03-12T13:16:00.815Z,3.30
2019-03-12T13:18:30.485Z,3.40
2019-03-12T13:21:00.160Z,3.20
2019-03-12T13:23:29.769Z,4.23
2019-03-12T13:25:59.484Z,1.97
2019-03-12T13:28:29.115Z,2.67
2019-03-12T13:30:58.745Z,2.00
2019-03-12T13:33:29.475Z,2.00
2019-03-12T13:35:59.194Z,2.27
2019-03-12T13:38:28.820Z,2.03
2019-03-12T13:41:02.908Z,1.87
2019-03-12T13:43:30.065Z,2.10
2019-03-12T13:45:59.768Z,1.77
2019-03-12T13:48:29.682Z,1.90
2019-03-12T13:50:59.327Z,2.10
2019-03-12T13:53:29.261Z,1.70
2019-03-12T13:55:58.950Z,1.67
2019-03-12T13:58:28.566Z,1.80
2019-03-12T14:00:58.353Z,1.80
2019-03-12T14:03:27.998Z,2.10
2019-03-12T14:05:57.629Z,1.53
2019-03-12T14:08:27.275Z,1.70
2019-03-12T14:10:57.123Z,1.60
2019-03-12T14:13:26.851Z,1.50
2019-03-12T14:15:56.703Z,1.57
2019-03-12T14:18:26.339Z,1.60
2019-03-12T14:21:02.372Z,1.30
2019-03-12T14:23:40.443Z,1.23
2019-03-12T14:26:10.368Z,1.10
2019-03-12T14:28:40.108Z,1.20
2019-03-12T14:31:09.847Z,1.00
2019-03-12T14:33:39.691Z,1.23
2019-03-12T14:36:09.436Z,0.90
2019-03-12T14:38:39.239Z,1.20
2019-03-12T14:41:08.896Z,1.30
2019-03-12T14:43:38.658Z,2.00
2019-03-12T14:46:08.417Z,4.10
2019-03-12T14:48:45.692Z,4.10
2019-03-12T14:51:22.313Z,4.90
2019-03-12T14:53:53.195Z,4.40
2019-03-12T14:56:24.733Z,6.17
2019-03-12T14:58:54.443Z,8.50
2019-03-12T15:01:24.186Z,6.40
2019-03-12T15:03:53.934Z,7.03
2019-03-12T15:06:23.706Z,5.63
2019-03-12T15:08:53.350Z,5.10
2019-03-12T15:11:23.004Z,6.10
2019-03-12T15:13:52.698Z,6.70
2019-03-12T15:16:22.354Z,3.90
2019-03-12T15:18:52.318Z,1.83
2019-03-12T15:21:21.952Z,1.03
2019-03-12T15:23:51.609Z,1.00
2019-03-12T15:26:21.301Z,2.60
2019-03-12T15:28:50.944Z,3.30
2019-03-12T15:31:20.688Z,7.00
2019-03-12T15:33:50.355Z,5.73
2019-03-12T15:36:19.998Z,4.77
2019-03-12T15:38:49.721Z,4.10
2019-03-12T15:41:19.375Z,4.40
2019-03-12T15:43:48.999Z,2.60
2019-03-12T15:46:18.643Z,1.03
2019-03-12T15:48:48.280Z,0.97
2019-03-12T15:51:17.970Z,0.63
2019-03-12T15:53:47.608Z,0.90
2019-03-12T15:56:17.248Z,0.70
2019-03-12T15:58:46.918Z,0.90
2019-03-12T16:01:16.685Z,0.80
2019-03-12T16:03:46.511Z,1.27
2019-03-12T16:06:16.182Z,2.07
2019-03-12T16:08:45.836Z,0.97
2019-03-12T16:11:15.522Z,0.80
2019-03-12T16:13:45.166Z,2.47
2019-03-12T16:16:14.793Z,1.47
2019-03-12T16:18:44.463Z,0.77
2019-03-12T16:21:14.113Z,1.00
2019-03-12T16:23:43.833Z,0.80
2019-03-12T16:26:13.478Z,0.83
2019-03-12T16:28:43.132Z,0.90
2019-03-12T16:31:12.810Z,1.00
2019-03-12T16:33:42.454Z,1.10
2019-03-12T16:36:12.154Z,1.00
2019-03-12T16:38:41.821Z,1.10
2019-03-12T16:41:11.467Z,1.10
2019-03-12T16:43:41.159Z,1.20
2019-03-12T16:46:10.792Z,1.13
2019-03-12T16:48:40.479Z,2.00
2019-03-12T16:51:10.168Z,1.10
2019-03-12T16:53:41.134Z,1.00
2019-03-12T16:56:10.785Z,1.10
2019-03-12T16:58:41.729Z,1.13
2019-03-12T17:01:11.493Z,0.70
2019-03-12T17:03:41.294Z,0.90
2019-03-12T17:06:10.935Z,0.97
2019-03-12T17:08:40.533Z,1.00
2019-03-12T17:11:10.110Z,1.10
2019-03-12T17:13:40.087Z,0.87
2019-03-12T17:16:10.772Z,0.90
2019-03-12T17:18:40.407Z,0.90
2019-03-12T17:21:10.047Z,1.00
2019-03-12T17:23:39.716Z,0.90
2019-03-12T17:26:09.352Z,1.00
2019-03-12T17:28:39.058Z,0.90
2019-03-12T17:31:08.707Z,0.80
2019-03-12T17:33:38.345Z,1.10
2019-03-12T17:36:08.045Z,1.07
2019-03-12T17:38:46.565Z,0.90
2019-03-12T17:41:09.053Z,1.33
2019-03-12T17:43:38.717Z,1.20
2019-03-12T17:46:08.347Z,1.20
2019-03-12T17:48:38.037Z,1.00
2019-03-12T17:51:07.703Z,1.20
2019-03-12T17:53:37.336Z,1.10
2019-03-12T17:56:07.145Z,1.20
2019-03-12T17:58:36.798Z,1.10
2019-03-12T18:01:06.472Z,1.47
2019-03-12T18:03:36.167Z,1.53
2019-03-12T18:06:05.939Z,1.73
2019-03-12T18:08:35.660Z,1.83
2019-03-12T18:11:05.417Z,2.67
2019-03-12T18:13:37.908Z,2.77
2019-03-12T18:16:07.571Z,2.27
2019-03-12T18:18:37.217Z,1.73
2019-03-12T18:21:06.917Z,1.30
2019-03-12T18:23:36.592Z,1.40
2019-03-12T18:26:08.287Z,1.10
2019-03-12T18:28:37.939Z,1.23
2019-03-12T18:31:07.574Z,1.50
2019-03-12T18:33:37.279Z,1.10
2019-03-12T18:36:07.014Z,0.90
2019-03-12T18:38:36.679Z,1.27
2019-03-12T18:41:06.786Z,2.27
2019-03-12T18:43:36.417Z,1.63
2019-03-12T18:46:06.121Z,1.30
2019-03-12T18:48:35.744Z,1.60
2019-03-12T18:51:05.580Z,3.80
2019-03-12T18:53:37.457Z,3.10
2019-03-12T18:56:08.637Z,1.50
2019-03-12T18:58:39.413Z,1.40
2019-03-12T19:01:13.880Z,1.20
2019-03-12T19:03:43.607Z,0.90
2019-03-12T19:06:13.284Z,1.07
2019-03-12T19:08:48.101Z,1.00
2019-03-12T19:11:14.454Z,1.00
2019-03-12T19:13:44.870Z,1.10
2019-03-12T19:16:14.727Z,1.03
2019-03-12T19:18:44.468Z,1.00
2019-03-12T19:21:14.252Z,1.00
2019-03-12T19:23:43.978Z,0.90
2019-03-12T19:26:15.058Z,0.90
2019-03-12T19:28:44.939Z,1.20
2019-03-12T19:31:33.439Z,0.90
2019-03-12T19:34:11.627Z,1.43
2019-03-12T19:36:41.290Z,1.20
2019-03-12T19:39:13.083Z,1.00
2019-03-12T19:41:42.732Z,0.90
2019-03-12T19:44:12.527Z,1.13
2019-03-12T19:46:42.261Z,0.90
2019-03-12T19:49:13.222Z,0.77
2019-03-12T19:51:42.860Z,0.77
2019-03-12T19:54:12.669Z,1.10
2019-03-12T19:56:42.850Z,1.20
2019-03-12T19:59:12.520Z,1.00
2019-03-12T20:01:44.651Z,0.90
2019-03-12T20:04:14.575Z,1.10
2019-03-12T20:06:44.422Z,1.60
2019-03-12T20:09:21.605Z,1.90
2019-03-12T20:12:34.148Z,4.13
2019-03-12T20:15:30.604Z,30.87
2019-03-12T20:18:37.104Z,7.90
2019-03-12T20:21:46.873Z,7.80
2019-03-12T20:25:09.823Z,7.10
2019-03-12T20:28:27.073Z,5.20
2019-03-12T20:31:31.565Z,6.23
2019-03-12T20:34:37.469Z,7.60
2019-03-12T20:37:55.900Z,5.17
2019-03-12T20:41:05.400Z,4.93
2019-03-12T20:44:14.840Z,5.63
2019-03-12T20:47:43.276Z,4.67
2019-03-12T20:50:51.679Z,4.03
2019-03-12T20:53:58.222Z,3.87
2019-03-12T20:57:10.168Z,4.07
2019-03-12T21:00:20.872Z,3.80
2019-03-12T21:03:37.303Z,4.00
2019-03-12T21:06:44.859Z,4.10
2019-03-12T21:09:55.224Z,3.80
2019-03-12T21:13:10.961Z,3.70
2019-03-12T21:16:00.003Z,3.87
2019-03-12T21:19:22.330Z,4.20
2019-03-12T21:22:22.517Z,3.70
2019-03-12T21:25:27.714Z,3.70
2019-03-12T21:28:38.186Z,3.77
2019-03-12T21:31:07.969Z,3.40
2019-03-12T21:33:37.609Z,3.67
2019-03-12T21:36:08.311Z,3.80
2019-03-12T21:38:38.264Z,3.93
2019-03-12T21:41:07.943Z,3.70
2019-03-12T21:43:37.626Z,3.80
2019-03-12T21:46:07.350Z,3.50
2019-03-12T21:48:36.981Z,3.90
2019-03-12T21:51:06.760Z,3.87
2019-03-12T21:53:36.402Z,3.90
2019-03-12T21:56:06.080Z,3.40
2019-03-12T21:58:35.707Z,3.50
2019-03-12T22:01:05.508Z,3.37
2019-03-12T22:03:35.204Z,3.10
2019-03-12T22:06:04.834Z,3.30
2019-03-12T22:08:34.527Z,3.67
2019-03-12T22:11:04.252Z,3.20
2019-03-12T22:13:33.894Z,3.10
2019-03-12T22:16:03.534Z,2.80
2019-03-12T22:18:33.181Z,3.10
2019-03-12T22:21:02.825Z,3.03
2019-03-12T22:23:41.946Z,3.13
2019-03-12T22:26:11.568Z,2.93
2019-03-12T22:28:41.195Z,2.93
2019-03-12T22:31:10.926Z,3.53
2019-03-12T22:33:40.552Z,3.33
2019-03-12T22:36:10.250Z,3.50
2019-03-12T22:38:39.883Z,3.40
2019-03-12T22:41:09.508Z,3.40
2019-03-12T22:43:39.195Z,3.17
2019-03-12T22:46:08.805Z,3.20
2019-03-12T22:48:38.440Z,3.00
2019-03-12T22:51:08.104Z,3.17
2019-03-12T22:53:37.733Z,2.53
2019-03-12T22:56:07.435Z,3.00
2019-03-12T22:58:37.087Z,2.50
2019-03-12T23:01:07.839Z,3.30
2019-03-12T23:03:37.513Z,2.57
2019-03-12T23:06:07.138Z,2.70
2019-03-12T23:08:36.781Z,2.77
2019-03-12T23:11:06.515Z,2.97
2019-03-12T23:13:36.147Z,2.60
2019-03-12T23:16:06.208Z,2.80
2019-03-12T23:18:35.841Z,2.90
2019-03-12T23:21:05.474Z,3.50
2019-03-12T23:23:35.096Z,3.80
2019-03-12T23:26:04.838Z,3.73
2019-03-12T23:28:34.483Z,3.67
2019-03-12T23:31:04.290Z,4.13
2019-03-12T23:33:33.921Z,3.53
2019-03-12T23:36:03.665Z,4.10
2019-03-12T23:38:33.302Z,3.43
2019-03-12T23:41:03.096Z,3.70
2019-03-12T23:43:32.840Z,3.70
2019-03-12T23:46:02.486Z,3.27
2019-03-12T23:48:32.124Z,3.00
2019-03-12T23:51:01.771Z,3.00
2019-03-12T23:53:31.450Z,3.50
2019-03-12T23:56:01.280Z,2.90
2019-03-12T23:58:32.587Z,2.40
